createdAt,value
2016-12-01T00:00:49.100Z,1020.87
2016-12-01T00:01:49.740Z,1020.81
2016-12-01T00:02:50.360Z,1020.75
2016-12-01T00:03:50.992Z,1020.78
2016-12-01T00:04:51.629Z,1020.77
2016-12-01T00:05:52.251Z,1020.71
2016-12-01T00:06:52.872Z,1020.72
2016-12-01T00:07:53.571Z,1020.68
2016-12-01T00:08:54.180Z,1020.69
2016-12-01T00:09:54.810Z,1020.65
2016-12-01T00:10:55.434Z,1020.68
2016-12-01T00:11:56.063Z,1020.62
2016-12-01T00:12:56.678Z,1020.66
2016-12-01T00:13:57.360Z,1020.71
2016-12-01T00:14:57.974Z,1020.7
2016-12-01T00:15:58.585Z,1020.71
2016-12-01T00:16:59.201Z,1020.76
2016-12-01T00:17:59.840Z,1020.71
2016-12-01T00:19:00.531Z,1020.78
2016-12-01T00:20:01.151Z,1020.74
2016-12-01T00:21:01.774Z,1020.72
2016-12-01T00:22:02.414Z,1020.73
2016-12-01T00:23:03.215Z,1020.74
2016-12-01T00:24:04.028Z,1020.67
2016-12-01T00:25:04.643Z,1020.68
2016-12-01T00:26:05.258Z,1020.73
2016-12-01T00:27:05.892Z,1020.66
2016-12-01T00:28:06.502Z,1020.67
2016-12-01T00:29:07.115Z,1020.62
2016-12-01T00:30:07.728Z,1020.63
2016-12-01T00:31:08.341Z,1020.55
2016-12-01T00:32:08.956Z,1020.53
2016-12-01T00:33:09.577Z,1020.53
2016-12-01T00:34:10.229Z,1020.56
2016-12-01T00:35:10.845Z,1020.53
2016-12-01T00:36:11.470Z,1020.52
2016-12-01T00:37:12.087Z,1020.62
2016-12-01T00:38:12.708Z,1020.62
2016-12-01T00:39:13.327Z,1020.57
2016-12-01T00:40:13.948Z,1020.63
2016-12-01T00:41:14.576Z,1020.6
2016-12-01T00:42:15.206Z,1020.59
2016-12-01T00:43:15.818Z,1020.63
2016-12-01T00:44:16.455Z,1020.59
2016-12-01T00:45:17.086Z,1020.57
2016-12-01T00:46:17.722Z,1020.55
2016-12-01T00:47:18.343Z,1020.61
2016-12-01T00:48:18.964Z,1020.59
2016-12-01T00:49:19.614Z,1020.63
2016-12-01T00:50:20.260Z,1020.54
2016-12-01T00:51:20.895Z,1020.53
2016-12-01T00:52:21.550Z,1020.55
2016-12-01T00:53:22.238Z,1020.52
2016-12-01T00:54:22.896Z,1020.5
2016-12-01T00:55:23.527Z,1020.48
2016-12-01T00:56:24.160Z,1020.48
2016-12-01T00:57:24.772Z,1020.49
2016-12-01T00:58:25.382Z,1020.44
2016-12-01T00:59:25.995Z,1020.45
2016-12-01T01:00:26.637Z,1020.47
2016-12-01T01:01:27.259Z,1020.46
2016-12-01T01:02:27.890Z,1020.46
2016-12-01T01:03:28.525Z,1020.44
2016-12-01T01:04:29.143Z,1020.45
2016-12-01T01:05:29.774Z,1020.43
2016-12-01T01:06:30.403Z,1020.47
2016-12-01T01:07:31.023Z,1020.41
2016-12-01T01:08:31.634Z,1020.44
2016-12-01T01:09:32.258Z,1020.44
2016-12-01T01:10:32.892Z,1020.45
2016-12-01T01:11:33.556Z,1020.4
2016-12-01T01:12:34.187Z,1020.44
2016-12-01T01:13:34.798Z,1020.39
2016-12-01T01:14:35.408Z,1020.4
2016-12-01T01:15:36.055Z,1020.34
2016-12-01T01:16:36.679Z,1020.34
2016-12-01T01:17:37.320Z,1020.33
2016-12-01T01:18:37.964Z,1020.3
2016-12-01T01:19:38.615Z,1020.28
2016-12-01T01:20:39.225Z,1020.25
2016-12-01T01:21:39.862Z,1020.25
2016-12-01T01:22:40.468Z,1020.23
2016-12-01T01:23:41.115Z,1020.26
2016-12-01T01:24:41.723Z,1020.29
2016-12-01T01:25:42.352Z,1020.28
2016-12-01T01:26:42.974Z,1020.33
2016-12-01T01:27:43.606Z,1020.28
2016-12-01T01:28:44.220Z,1020.25
2016-12-01T01:29:44.837Z,1020.19
2016-12-01T01:30:45.482Z,1020.2
2016-12-01T01:31:46.093Z,1020.16
2016-12-01T01:32:46.731Z,1020.16
2016-12-01T01:33:47.391Z,1020.15
2016-12-01T01:34:48.042Z,1020.12
2016-12-01T01:35:48.678Z,1020.13
2016-12-01T01:36:49.305Z,1020.13
2016-12-01T01:37:49.946Z,1020.16
2016-12-01T01:38:50.563Z,1020.11
2016-12-01T01:39:51.178Z,1020.04
2016-12-01T01:40:51.931Z,1020.02
2016-12-01T01:41:52.566Z,1019.94
2016-12-01T01:42:53.203Z,1019.93
2016-12-01T01:43:53.872Z,1019.89
2016-12-01T01:44:54.503Z,1019.95
2016-12-01T01:45:55.119Z,1019.94
2016-12-01T01:46:55.745Z,1019.97
2016-12-01T01:47:56.381Z,1020.02
2016-12-01T01:48:57.044Z,1019.98
2016-12-01T01:49:57.680Z,1019.95
2016-12-01T01:50:58.317Z,1019.92
2016-12-01T01:51:58.954Z,1019.93
2016-12-01T01:52:59.576Z,1019.92
2016-12-01T01:54:00.200Z,1019.92
2016-12-01T01:55:00.838Z,1019.9
2016-12-01T01:56:01.458Z,1019.88
2016-12-01T01:57:02.080Z,1019.89
2016-12-01T01:58:02.684Z,1019.85
2016-12-01T01:59:03.313Z,1019.8
2016-12-01T02:00:03.924Z,1019.84
2016-12-01T02:01:04.543Z,1019.83
2016-12-01T02:02:05.163Z,1019.81
2016-12-01T02:03:05.784Z,1019.85
2016-12-01T02:04:06.400Z,1019.78
2016-12-01T02:05:07.022Z,1019.79
2016-12-01T02:06:07.671Z,1019.79
2016-12-01T02:07:08.288Z,1019.74
2016-12-01T02:08:08.928Z,1019.79
2016-12-01T02:09:09.597Z,1019.81
2016-12-01T02:10:10.237Z,1019.78
2016-12-01T02:11:10.861Z,1019.86
2016-12-01T02:12:11.481Z,1019.78
2016-12-01T02:13:12.103Z,1019.83
2016-12-01T02:14:12.722Z,1019.82
2016-12-01T02:15:13.345Z,1019.85
2016-12-01T02:16:13.966Z,1019.78
2016-12-01T02:17:14.588Z,1019.8
2016-12-01T02:18:15.211Z,1019.68
2016-12-01T02:19:15.829Z,1019.73
2016-12-01T02:20:16.438Z,1019.72
2016-12-01T02:21:17.055Z,1019.69
2016-12-01T02:22:17.675Z,1019.74
2016-12-01T02:23:18.293Z,1019.7
2016-12-01T02:24:18.917Z,1019.72
2016-12-01T02:25:19.536Z,1019.72
2016-12-01T02:26:20.151Z,1019.72
2016-12-01T02:27:20.782Z,1019.69
2016-12-01T02:28:21.406Z,1019.65
2016-12-01T02:29:22.015Z,1019.64
2016-12-01T02:30:22.640Z,1019.67
2016-12-01T02:31:23.271Z,1019.69
2016-12-01T02:32:23.906Z,1019.77
2016-12-01T02:33:24.545Z,1019.65
2016-12-01T02:34:25.169Z,1019.63
2016-12-01T02:35:25.782Z,1019.61
2016-12-01T02:36:26.422Z,1019.53
2016-12-01T02:37:27.037Z,1019.44
2016-12-01T02:38:27.657Z,1019.46
2016-12-01T02:39:28.279Z,1019.57
2016-12-01T02:40:28.903Z,1019.49
2016-12-01T02:41:29.546Z,1019.52
2016-12-01T02:42:30.191Z,1019.48
2016-12-01T02:43:30.778Z,1019.59
2016-12-01T02:44:31.399Z,1019.55
2016-12-01T02:45:32.022Z,1019.49
2016-12-01T02:46:32.630Z,1019.51
2016-12-01T02:47:33.240Z,1019.49
2016-12-01T02:48:33.911Z,1019.49
2016-12-01T02:49:34.547Z,1019.44
2016-12-01T02:50:35.194Z,1019.39
2016-12-01T02:51:35.796Z,1019.4
2016-12-01T02:52:36.417Z,1019.44
2016-12-01T02:53:37.043Z,1019.34
2016-12-01T02:54:37.695Z,1019.29
2016-12-01T02:55:38.291Z,1019.39
2016-12-01T02:56:38.916Z,1019.46
2016-12-01T02:57:39.528Z,1019.4
2016-12-01T02:58:40.149Z,1019.46
2016-12-01T02:59:40.763Z,1019.44
2016-12-01T03:00:41.385Z,1019.5
2016-12-01T03:01:42.017Z,1019.48
2016-12-01T03:02:42.653Z,1019.41
2016-12-01T03:03:43.290Z,1019.42
2016-12-01T03:04:43.906Z,1019.47
2016-12-01T03:05:44.525Z,1019.41
2016-12-01T03:06:45.145Z,1019.46
2016-12-01T03:07:45.786Z,1019.38
2016-12-01T03:08:46.408Z,1019.48
2016-12-01T03:09:47.029Z,1019.45
2016-12-01T03:10:47.661Z,1019.46
2016-12-01T03:11:48.278Z,1019.45
2016-12-01T03:12:48.912Z,1019.44
2016-12-01T03:13:49.554Z,1019.45
2016-12-01T03:14:50.183Z,1019.42
2016-12-01T03:15:50.802Z,1019.37
2016-12-01T03:16:51.443Z,1019.43
2016-12-01T03:17:52.069Z,1019.39
2016-12-01T03:18:52.703Z,1019.31
2016-12-01T03:19:53.364Z,1019.34
2016-12-01T03:20:54.023Z,1019.36
2016-12-01T03:21:54.627Z,1019.25
2016-12-01T03:22:55.247Z,1019.3
2016-12-01T03:23:55.867Z,1019.29
2016-12-01T03:24:56.489Z,1019.25
2016-12-01T03:25:57.112Z,1019.26
2016-12-01T03:26:57.732Z,1019.27
2016-12-01T03:27:58.349Z,1019.27
2016-12-01T03:28:58.973Z,1019.29
2016-12-01T03:29:59.584Z,1019.24
2016-12-01T03:31:00.199Z,1019.17
2016-12-01T03:32:00.833Z,1019.17
2016-12-01T03:33:01.454Z,1019.14
2016-12-01T03:34:02.078Z,1019.15
2016-12-01T03:35:02.700Z,1019.21
2016-12-01T03:36:03.321Z,1019.07
2016-12-01T03:37:03.942Z,1019.09
2016-12-01T03:38:04.607Z,1019.11
2016-12-01T03:39:05.252Z,1019.1
2016-12-01T03:40:05.873Z,1019.15
2016-12-01T03:41:06.498Z,1019.09
2016-12-01T03:42:07.121Z,1019.12
2016-12-01T03:43:07.767Z,1019.12
2016-12-01T03:44:08.408Z,1019.16
2016-12-01T03:45:09.035Z,1019.15
2016-12-01T03:46:09.714Z,1019.09
2016-12-01T03:47:10.360Z,1019.13
2016-12-01T03:48:11.023Z,1019.17
2016-12-01T03:49:11.654Z,1019.18
2016-12-01T03:50:12.294Z,1019.22
2016-12-01T03:51:12.909Z,1019.17
2016-12-01T03:52:13.586Z,1019.13
2016-12-01T03:53:14.228Z,1019.11
2016-12-01T03:54:14.873Z,1019.07
2016-12-01T03:55:15.488Z,1019.1
2016-12-01T03:56:16.109Z,1019.11
2016-12-01T03:57:16.733Z,1019.08
2016-12-01T03:58:17.351Z,1019.06
2016-12-01T03:59:17.973Z,1019
2016-12-01T04:00:18.593Z,1018.94
2016-12-01T04:01:19.209Z,1018.97
2016-12-01T04:02:19.831Z,1018.97
2016-12-01T04:03:20.444Z,1019.02
2016-12-01T04:04:21.067Z,1018.94
2016-12-01T04:05:21.681Z,1019.06
2016-12-01T04:06:22.297Z,1019.04
2016-12-01T04:07:22.906Z,1019.01
2016-12-01T04:08:23.514Z,1019.03
2016-12-01T04:09:24.151Z,1019
2016-12-01T04:10:24.810Z,1019.02
2016-12-01T04:11:25.466Z,1018.99
2016-12-01T04:12:26.134Z,1018.98
2016-12-01T04:13:26.791Z,1018.96
2016-12-01T04:14:27.408Z,1018.99
2016-12-01T04:15:28.052Z,1018.98
2016-12-01T04:16:28.672Z,1018.97
2016-12-01T04:17:29.293Z,1019.01
2016-12-01T04:18:29.918Z,1019.01
2016-12-01T04:19:30.536Z,1018.92
2016-12-01T04:20:31.160Z,1018.92
2016-12-01T04:21:31.779Z,1018.95
2016-12-01T04:22:32.399Z,1018.96
2016-12-01T04:23:33.019Z,1018.95
2016-12-01T04:24:33.641Z,1018.89
2016-12-01T04:25:34.280Z,1018.94
2016-12-01T04:26:37.085Z,1018.83
2016-12-01T04:27:37.713Z,1018.84
2016-12-01T04:28:38.337Z,1018.88
2016-12-01T04:29:39.007Z,1018.77
2016-12-01T04:30:39.650Z,1018.75
2016-12-01T04:31:40.271Z,1018.76
2016-12-01T04:32:40.894Z,1018.69
2016-12-01T04:33:41.526Z,1018.71
2016-12-01T04:34:42.176Z,1018.66
2016-12-01T04:35:42.829Z,1018.62
2016-12-01T04:36:43.449Z,1018.64
2016-12-01T04:37:44.085Z,1018.72
2016-12-01T04:38:44.706Z,1018.71
2016-12-01T04:39:45.349Z,1018.7
2016-12-01T04:40:45.970Z,1018.62
2016-12-01T04:41:46.575Z,1018.62
2016-12-01T04:42:47.209Z,1018.64
2016-12-01T04:43:47.833Z,1018.61
2016-12-01T04:44:48.456Z,1018.63
2016-12-01T04:46:26.339Z,1018.69
2016-12-01T04:47:26.943Z,1018.74
2016-12-01T04:48:27.553Z,1018.76
2016-12-01T04:49:28.168Z,1018.72
2016-12-01T04:50:28.797Z,1018.72
2016-12-01T04:51:29.424Z,1018.85
2016-12-01T04:52:30.035Z,1018.81
2016-12-01T04:53:30.658Z,1018.87
2016-12-01T04:54:31.278Z,1018.82
2016-12-01T04:55:31.885Z,1018.8
2016-12-01T04:56:32.517Z,1018.79
2016-12-01T04:57:33.136Z,1018.77
2016-12-01T04:58:33.766Z,1018.69
2016-12-01T04:59:34.362Z,1018.68
2016-12-01T05:00:34.968Z,1018.73
2016-12-01T05:01:35.575Z,1018.71
2016-12-01T05:02:36.210Z,1018.78
2016-12-01T05:03:36.832Z,1018.79
2016-12-01T05:04:37.447Z,1018.79
2016-12-01T05:05:38.049Z,1018.76
2016-12-01T05:06:38.672Z,1018.81
2016-12-01T05:07:39.293Z,1018.75
2016-12-01T05:08:39.922Z,1018.76
2016-12-01T05:09:40.534Z,1018.71
2016-12-01T05:10:41.147Z,1018.64
2016-12-01T05:11:41.746Z,1018.61
2016-12-01T05:12:42.358Z,1018.64
2016-12-01T05:13:42.977Z,1018.62
2016-12-01T05:14:43.594Z,1018.59
2016-12-01T05:15:44.200Z,1018.59
2016-12-01T05:16:44.821Z,1018.59
2016-12-01T05:17:45.427Z,1018.62
2016-12-01T05:18:46.033Z,1018.63
2016-12-01T05:19:46.644Z,1018.59
2016-12-01T05:20:47.241Z,1018.62
2016-12-01T05:21:47.880Z,1018.59
2016-12-01T05:22:48.474Z,1018.56
2016-12-01T05:23:49.091Z,1018.55
2016-12-01T05:24:49.715Z,1018.5
2016-12-01T05:25:50.343Z,1018.46
2016-12-01T05:26:50.952Z,1018.44
2016-12-01T05:27:51.555Z,1018.49
2016-12-01T05:28:52.199Z,1018.54
2016-12-01T05:29:52.807Z,1018.55
2016-12-01T05:30:53.442Z,1018.55
2016-12-01T05:31:54.047Z,1018.63
2016-12-01T05:32:54.681Z,1018.6
2016-12-01T05:33:55.310Z,1018.57
2016-12-01T05:34:55.915Z,1018.54
2016-12-01T05:35:56.530Z,1018.56
2016-12-01T05:36:57.159Z,1018.62
2016-12-01T05:37:57.769Z,1018.63
2016-12-01T05:38:58.384Z,1018.6
2016-12-01T05:39:59.009Z,1018.66
2016-12-01T05:40:59.653Z,1018.59
2016-12-01T05:42:00.270Z,1018.55
2016-12-01T05:43:00.888Z,1018.49
2016-12-01T05:44:01.493Z,1018.45
2016-12-01T05:45:02.124Z,1018.53
2016-12-01T05:46:02.740Z,1018.57
2016-12-01T05:47:03.356Z,1018.6
2016-12-01T05:48:03.958Z,1018.54
2016-12-01T05:49:04.559Z,1018.55
2016-12-01T05:50:05.183Z,1018.5
2016-12-01T05:51:05.817Z,1018.52
2016-12-01T05:52:06.411Z,1018.47
2016-12-01T05:53:07.021Z,1018.48
2016-12-01T05:54:07.635Z,1018.46
2016-12-01T05:55:08.234Z,1018.4
2016-12-01T05:56:08.851Z,1018.37
2016-12-01T05:57:09.458Z,1018.33
2016-12-01T05:58:10.090Z,1018.31
2016-12-01T05:59:10.698Z,1018.22
2016-12-01T06:00:11.306Z,1018.26
2016-12-01T06:01:11.924Z,1018.22
2016-12-01T06:02:12.552Z,1018.31
2016-12-01T06:03:13.164Z,1018.31
2016-12-01T06:04:13.785Z,1018.33
2016-12-01T06:05:14.406Z,1018.37
2016-12-01T06:06:15.033Z,1018.3
2016-12-01T06:07:15.649Z,1018.34
2016-12-01T06:08:16.256Z,1018.31
2016-12-01T06:09:16.891Z,1018.31
2016-12-01T06:10:17.502Z,1018.34
2016-12-01T06:11:18.134Z,1018.23
2016-12-01T06:12:18.752Z,1018.23
2016-12-01T06:13:19.363Z,1018.22
2016-12-01T06:14:19.990Z,1018.24
2016-12-01T06:15:20.602Z,1018.29
2016-12-01T06:16:21.228Z,1018.31
2016-12-01T06:17:21.853Z,1018.33
2016-12-01T06:18:22.478Z,1018.33
2016-12-01T06:19:23.092Z,1018.3
2016-12-01T06:20:23.782Z,1018.23
2016-12-01T06:21:24.424Z,1018.26
2016-12-01T06:22:25.056Z,1018.23
2016-12-01T06:23:25.717Z,1018.2
2016-12-01T06:24:26.336Z,1018.16
2016-12-01T06:25:27.003Z,1018.17
2016-12-01T06:26:27.652Z,1018.11
2016-12-01T06:27:28.266Z,1018.14
2016-12-01T06:28:28.885Z,1018.18
2016-12-01T06:29:29.508Z,1018.13
2016-12-01T06:30:30.125Z,1018.17
2016-12-01T06:31:30.760Z,1018.25
2016-12-01T06:32:31.372Z,1018.12
2016-12-01T06:33:31.986Z,1018.23
2016-12-01T06:34:32.593Z,1018.33
2016-12-01T06:35:33.198Z,1018.29
2016-12-01T06:36:33.808Z,1018.3
2016-12-01T06:37:34.449Z,1018.36
2016-12-01T06:38:35.093Z,1018.46
2016-12-01T06:39:35.726Z,1018.32
2016-12-01T06:40:36.331Z,1018.41
2016-12-01T06:41:36.962Z,1018.43
2016-12-01T06:42:37.582Z,1018.38
2016-12-01T06:43:38.204Z,1018.44
2016-12-01T06:44:38.822Z,1018.37
2016-12-01T06:45:39.439Z,1018.45
2016-12-01T06:46:40.085Z,1018.33
2016-12-01T06:47:40.697Z,1018.32
2016-12-01T06:48:41.315Z,1018.26
2016-12-01T06:49:41.992Z,1018.29
2016-12-01T06:50:42.612Z,1018.22
2016-12-01T06:51:43.232Z,1018.25
2016-12-01T06:52:43.840Z,1018.26
2016-12-01T06:53:44.455Z,1018.27
2016-12-01T06:54:45.074Z,1018.26
2016-12-01T06:55:45.693Z,1018.28
2016-12-01T06:56:46.311Z,1018.3
2016-12-01T06:57:46.934Z,1018.28
2016-12-01T06:58:47.564Z,1018.31
2016-12-01T06:59:48.179Z,1018.36
2016-12-01T07:00:48.820Z,1018.32
2016-12-01T07:01:49.451Z,1018.29
2016-12-01T07:02:50.109Z,1018.28
2016-12-01T07:03:50.724Z,1018.26
2016-12-01T07:04:51.329Z,1018.29
2016-12-01T07:05:51.979Z,1018.26
2016-12-01T07:06:52.590Z,1018.24
2016-12-01T07:07:53.209Z,1018.23
2016-12-01T07:08:53.856Z,1018.28
2016-12-01T07:09:54.466Z,1018.23
2016-12-01T07:10:55.077Z,1018.25
2016-12-01T07:11:55.709Z,1018.25
2016-12-01T07:12:56.337Z,1018.2
2016-12-01T07:13:56.955Z,1018.19
2016-12-01T07:14:57.568Z,1018.19
2016-12-01T07:15:58.177Z,1018.08
2016-12-01T07:16:58.797Z,1018.09
2016-12-01T07:17:59.432Z,1018.04
2016-12-01T07:19:00.042Z,1018.04
2016-12-01T07:20:00.653Z,1018.17
2016-12-01T07:21:01.286Z,1018.05
2016-12-01T07:22:01.891Z,1018.02
2016-12-01T07:23:02.528Z,1018.01
2016-12-01T07:24:03.149Z,1018.05
2016-12-01T07:25:03.761Z,1017.97
2016-12-01T07:26:04.373Z,1017.91
2016-12-01T07:27:04.981Z,1017.94
2016-12-01T07:28:05.601Z,1017.93
2016-12-01T07:29:06.214Z,1017.9
2016-12-01T07:30:06.827Z,1017.92
2016-12-01T07:31:07.449Z,1017.93
2016-12-01T07:32:08.123Z,1018.02
2016-12-01T07:33:08.755Z,1018.04
2016-12-01T07:34:09.377Z,1018.04
2016-12-01T07:35:10.001Z,1017.9
2016-12-01T07:36:10.626Z,1018
2016-12-01T07:37:11.236Z,1018.01
2016-12-01T07:38:11.849Z,1018
2016-12-01T07:39:12.491Z,1017.94
2016-12-01T07:40:13.106Z,1017.94
2016-12-01T07:41:13.717Z,1017.95
2016-12-01T07:42:14.334Z,1017.88
2016-12-01T07:43:14.954Z,1017.85
2016-12-01T07:44:15.593Z,1017.84
2016-12-01T07:45:16.220Z,1017.78
2016-12-01T07:46:16.832Z,1017.77
2016-12-01T07:47:17.471Z,1017.72
2016-12-01T07:48:18.125Z,1017.69
2016-12-01T07:49:18.747Z,1017.64
2016-12-01T07:50:19.369Z,1017.66
2016-12-01T07:51:19.976Z,1017.73
2016-12-01T07:52:20.625Z,1017.73
2016-12-01T07:53:21.283Z,1017.64
2016-12-01T07:54:21.883Z,1017.71
2016-12-01T07:55:22.504Z,1017.75
2016-12-01T07:56:23.155Z,1017.68
2016-12-01T07:57:23.764Z,1017.68
2016-12-01T07:58:24.418Z,1017.69
2016-12-01T07:59:25.042Z,1017.73
2016-12-01T08:00:25.654Z,1017.73
2016-12-01T08:01:26.289Z,1017.75
2016-12-01T08:02:26.907Z,1017.86
2016-12-01T08:03:27.534Z,1017.82
2016-12-01T08:04:28.148Z,1017.92
2016-12-01T08:05:28.776Z,1017.77
2016-12-01T08:06:29.395Z,1017.9
2016-12-01T08:07:30.056Z,1017.82
2016-12-01T08:08:30.724Z,1017.76
2016-12-01T08:09:31.363Z,1017.8
2016-12-01T08:10:31.998Z,1017.92
2016-12-01T08:11:32.608Z,1017.92
2016-12-01T08:12:33.225Z,1017.84
2016-12-01T08:13:33.841Z,1017.99
2016-12-01T08:14:34.475Z,1018.02
2016-12-01T08:15:35.114Z,1017.95
2016-12-01T08:16:35.740Z,1017.98
2016-12-01T08:17:36.353Z,1017.95
2016-12-01T08:18:36.960Z,1017.91
2016-12-01T08:19:37.571Z,1017.94
2016-12-01T08:20:38.225Z,1018
2016-12-01T08:21:38.899Z,1018.05
2016-12-01T08:22:39.548Z,1018.05
2016-12-01T08:23:40.170Z,1018.08
2016-12-01T08:24:40.802Z,1017.94
2016-12-01T08:25:41.421Z,1017.92
2016-12-01T08:26:42.068Z,1017.93
2016-12-01T08:27:42.691Z,1017.96
2016-12-01T08:28:43.330Z,1017.93
2016-12-01T08:29:43.987Z,1017.96
2016-12-01T08:30:44.633Z,1017.94
2016-12-01T08:31:45.258Z,1018.01
2016-12-01T08:32:45.895Z,1017.94
2016-12-01T08:33:46.517Z,1018.07
2016-12-01T08:34:47.138Z,1018.11
2016-12-01T08:35:47.777Z,1018.11
2016-12-01T08:36:48.399Z,1018.04
2016-12-01T08:37:49.023Z,1018.09
2016-12-01T08:38:49.681Z,1017.99
2016-12-01T08:39:50.300Z,1017.89
2016-12-01T08:40:50.923Z,1017.92
2016-12-01T08:41:51.547Z,1017.91
2016-12-01T08:42:52.164Z,1017.83
2016-12-01T08:43:52.785Z,1017.91
2016-12-01T08:44:53.402Z,1017.9
2016-12-01T08:45:54.031Z,1017.88
2016-12-01T08:46:54.643Z,1017.8
2016-12-01T08:47:55.284Z,1017.76
2016-12-01T08:48:55.901Z,1017.76
2016-12-01T08:49:56.530Z,1017.83
2016-12-01T08:50:57.182Z,1017.79
2016-12-01T08:51:57.808Z,1017.77
2016-12-01T08:52:58.418Z,1017.67
2016-12-01T08:53:59.030Z,1017.74
2016-12-01T08:54:59.655Z,1017.72
2016-12-01T08:56:00.278Z,1017.75
2016-12-01T08:57:00.892Z,1017.71
2016-12-01T08:58:01.509Z,1017.67
2016-12-01T08:59:02.133Z,1017.6
2016-12-01T09:00:02.763Z,1017.72
2016-12-01T09:01:03.395Z,1017.76
2016-12-01T09:02:04.046Z,1017.76
2016-12-01T09:03:04.663Z,1017.75
2016-12-01T09:04:05.286Z,1017.83
2016-12-01T09:05:05.905Z,1017.78
2016-12-01T09:06:06.528Z,1017.83
2016-12-01T09:07:07.157Z,1017.87
2016-12-01T09:08:07.765Z,1017.73
2016-12-01T09:09:08.386Z,1017.68
2016-12-01T09:10:09.004Z,1017.74
2016-12-01T09:11:09.637Z,1017.74
2016-12-01T09:12:10.224Z,1017.8
2016-12-01T09:13:10.848Z,1017.75
2016-12-01T09:14:11.449Z,1017.77
2016-12-01T09:15:12.081Z,1017.72
2016-12-01T09:16:12.701Z,1017.72
2016-12-01T09:17:13.335Z,1017.69
2016-12-01T09:18:13.962Z,1017.61
2016-12-01T09:19:14.622Z,1017.57
2016-12-01T09:20:15.243Z,1017.6
2016-12-01T09:21:15.862Z,1017.65
2016-12-01T09:22:16.504Z,1017.64
2016-12-01T09:23:17.099Z,1017.65
2016-12-01T09:24:17.731Z,1017.66
2016-12-01T09:25:18.357Z,1017.58
2016-12-01T09:26:19.011Z,1017.5
2016-12-01T09:27:19.635Z,1017.57
2016-12-01T09:28:20.279Z,1017.53
2016-12-01T09:29:20.911Z,1017.53
2016-12-01T09:30:21.553Z,1017.57
2016-12-01T09:31:22.176Z,1017.48
2016-12-01T09:32:22.824Z,1017.55
2016-12-01T09:33:23.466Z,1017.48
2016-12-01T09:34:24.107Z,1017.43
2016-12-01T09:35:24.738Z,1017.49
2016-12-01T09:36:25.358Z,1017.43
2016-12-01T09:37:25.999Z,1017.36
2016-12-01T09:38:26.628Z,1017.36
2016-12-01T09:39:27.269Z,1017.24
2016-12-01T09:40:27.918Z,1017.23
2016-12-01T09:41:28.551Z,1017.24
2016-12-01T09:42:29.212Z,1017.27
2016-12-01T09:43:29.824Z,1017.34
2016-12-01T09:44:30.461Z,1017.31
2016-12-01T09:45:31.075Z,1017.2
2016-12-01T09:46:31.728Z,1017.25
2016-12-01T09:47:32.364Z,1017.18
2016-12-01T09:48:33.011Z,1017.27
2016-12-01T09:49:33.659Z,1017.23
2016-12-01T09:50:34.324Z,1017.2
2016-12-01T09:51:34.960Z,1017.16
2016-12-01T09:52:35.581Z,1017.24
2016-12-01T09:53:36.435Z,1017.23
2016-12-01T09:54:37.127Z,1017.23
2016-12-01T09:55:37.769Z,1017.16
2016-12-01T09:56:38.400Z,1017.29
2016-12-01T09:57:39.067Z,1017.18
2016-12-01T09:58:39.717Z,1017.34
2016-12-01T09:59:40.352Z,1017.25
2016-12-01T10:00:40.978Z,1017.31
2016-12-01T10:01:41.630Z,1017.25
2016-12-01T10:02:42.294Z,1017.18
2016-12-01T10:03:42.961Z,1017.2
2016-12-01T10:04:43.616Z,1017.15
2016-12-01T10:05:44.311Z,1017.15
2016-12-01T10:06:44.974Z,1017.13
2016-12-01T10:07:45.611Z,1017.15
2016-12-01T10:08:46.255Z,1017.2
2016-12-01T10:09:46.891Z,1017.11
2016-12-01T10:10:47.544Z,1017.07
2016-12-01T10:11:48.177Z,1017.13
2016-12-01T10:12:48.799Z,1017.16
2016-12-01T10:13:49.424Z,1017.08
2016-12-01T10:14:50.108Z,1017.08
2016-12-01T10:15:50.753Z,1017.2
2016-12-01T10:16:51.413Z,1017.2
2016-12-01T10:17:52.060Z,1017.17
2016-12-01T10:18:52.677Z,1017.21
2016-12-01T10:19:53.364Z,1017.19
2016-12-01T10:20:54.052Z,1017.12
2016-12-01T10:21:54.686Z,1017.2
2016-12-01T10:22:55.320Z,1017.16
2016-12-01T10:23:56.012Z,1017.17
2016-12-01T10:24:56.666Z,1017.24
2016-12-01T10:25:57.315Z,1017.29
2016-12-01T10:26:57.966Z,1017.19
2016-12-01T10:27:58.639Z,1017.23
2016-12-01T10:28:59.278Z,1017.25
2016-12-01T10:29:59.928Z,1017.21
2016-12-01T10:31:00.592Z,1017.15
2016-12-01T10:32:01.249Z,1017.18
2016-12-01T10:33:01.886Z,1017.15
2016-12-01T10:34:02.540Z,1017.08
2016-12-01T10:35:03.172Z,1017.04
2016-12-01T10:36:03.828Z,1017.01
2016-12-01T10:37:04.478Z,1016.99
2016-12-01T10:38:05.128Z,1016.96
2016-12-01T10:39:05.782Z,1016.95
2016-12-01T10:40:06.423Z,1016.91
2016-12-01T10:41:07.062Z,1016.88
2016-12-01T10:42:07.718Z,1016.91
2016-12-01T10:43:08.334Z,1016.92
2016-12-01T10:44:08.996Z,1016.89
2016-12-01T10:45:09.644Z,1016.84
2016-12-01T10:46:10.352Z,1016.87
2016-12-01T10:47:11.074Z,1016.86
2016-12-01T10:48:11.757Z,1016.79
2016-12-01T10:49:12.405Z,1016.77
2016-12-01T10:50:13.057Z,1016.7
2016-12-01T10:51:13.675Z,1016.64
2016-12-01T10:52:14.337Z,1016.6
2016-12-01T10:53:14.997Z,1016.57
2016-12-01T10:54:15.638Z,1016.57
2016-12-01T10:55:16.301Z,1016.64
2016-12-01T10:56:16.947Z,1016.61
2016-12-01T10:57:17.605Z,1016.69
2016-12-01T10:58:18.254Z,1016.74
2016-12-01T10:59:18.907Z,1016.7
2016-12-01T11:00:19.543Z,1016.7
2016-12-01T11:01:20.197Z,1016.67
2016-12-01T11:02:20.855Z,1016.65
2016-12-01T11:03:21.497Z,1016.63
2016-12-01T11:04:22.167Z,1016.63
2016-12-01T11:05:22.811Z,1016.67
2016-12-01T11:06:23.472Z,1016.66
2016-12-01T11:07:24.096Z,1016.64
2016-12-01T11:08:24.734Z,1016.61
2016-12-01T11:09:25.447Z,1016.57
2016-12-01T11:10:26.123Z,1016.57
2016-12-01T11:11:26.771Z,1016.52
2016-12-01T11:12:27.465Z,1016.55
2016-12-01T11:13:28.135Z,1016.57
2016-12-01T11:14:28.793Z,1016.61
2016-12-01T11:15:29.526Z,1016.55
2016-12-01T11:16:30.155Z,1016.57
2016-12-01T11:17:30.796Z,1016.62
2016-12-01T11:18:31.473Z,1016.56
2016-12-01T11:19:32.115Z,1016.51
2016-12-01T11:20:32.758Z,1016.57
2016-12-01T11:21:33.466Z,1016.52
2016-12-01T11:22:34.158Z,1016.51
2016-12-01T11:23:34.822Z,1016.5
2016-12-01T11:24:35.538Z,1016.43
2016-12-01T11:25:36.305Z,1016.46
2016-12-01T11:26:36.949Z,1016.42
2016-12-01T11:27:37.612Z,1016.43
2016-12-01T11:28:38.284Z,1016.44
2016-12-01T11:29:38.994Z,1016.39
2016-12-01T11:30:39.648Z,1016.39
2016-12-01T11:31:40.299Z,1016.34
2016-12-01T11:32:40.960Z,1016.38
2016-12-01T11:33:41.582Z,1016.25
2016-12-01T11:34:42.250Z,1016.36
2016-12-01T11:35:42.896Z,1016.33
2016-12-01T11:36:43.582Z,1016.29
2016-12-01T11:37:44.238Z,1016.32
2016-12-01T11:38:44.961Z,1016.3
2016-12-01T11:39:45.603Z,1016.29
2016-12-01T11:40:46.243Z,1016.28
2016-12-01T11:41:46.988Z,1016.21
2016-12-01T11:42:47.660Z,1016.18
2016-12-01T11:43:48.292Z,1016.23
2016-12-01T11:44:48.913Z,1016.21
2016-12-01T11:45:49.548Z,1016.23
2016-12-01T11:46:50.171Z,1016.12
2016-12-01T11:47:50.844Z,1016.1
2016-12-01T11:48:51.490Z,1016.1
2016-12-01T11:49:52.151Z,1016.11
2016-12-01T11:50:52.813Z,1016.09
2016-12-01T11:51:53.447Z,1016.11
2016-12-01T11:52:54.109Z,1016.06
2016-12-01T11:53:54.762Z,1016.08
2016-12-01T11:54:55.399Z,1016.1
2016-12-01T11:55:56.039Z,1016.16
2016-12-01T11:56:56.684Z,1016.02
2016-12-01T11:57:57.313Z,1016.01
2016-12-01T11:58:58.006Z,1016.06
2016-12-01T11:59:58.649Z,1016.03
2016-12-01T12:00:59.269Z,1015.97
2016-12-01T12:01:59.890Z,1015.96
2016-12-01T12:03:00.529Z,1015.88
2016-12-01T12:04:01.264Z,1015.92
2016-12-01T12:05:01.906Z,1015.81
2016-12-01T12:06:02.544Z,1015.82
2016-12-01T12:07:03.177Z,1015.82
2016-12-01T12:08:03.813Z,1015.79
2016-12-01T12:09:04.458Z,1015.82
2016-12-01T12:10:05.083Z,1015.69
2016-12-01T12:11:05.722Z,1015.72
2016-12-01T12:12:06.388Z,1015.75
2016-12-01T12:13:07.055Z,1015.63
2016-12-01T12:14:07.697Z,1015.64
2016-12-01T12:15:08.346Z,1015.62
2016-12-01T12:16:09.006Z,1015.62